Time;durP1;ratioP1;P1;durP2;ratioP2;P2;SDS_P1;SDS_P2;PMS_P1;PMS_P2;Temp;Humidity;BMP_temperature;BMP_pressure;BME280_temperature;BME280_humidity;BME280_pressure;Samples;Min_cycle;Max_cycle;Signal;HPM_P1;HPM_P2
2024/02/27 00:01:37;;;;;;;47.50;30.80;;;;;;;7.79;76.95;100307.84;103658;1305;22715;-59
2024/02/27 00:04:03;;;;;;;46.30;28.90;;;;;;;7.80;76.73;100309.34;103656;1308;25773;-60
2024/02/27 00:06:29;;;;;;;44.60;29.60;;;;;;;7.81;77.08;100310.70;103669;1308;22535;-59
2024/02/27 00:08:56;;;;;;;49.80;30.30;;;;;;;7.82;77.06;100313.42;103623;1314;23858;-59
2024/02/27 00:11:22;;;;;;;48.40;30.60;;;;;;;7.84;77.61;100309.13;107333;1295;22412;-60
2024/02/27 00:13:48;;;;;;;49.50;32.80;;;;;;;7.82;77.66;100312.05;107303;1313;22344;-60
2024/02/27 00:16:16;;;;;;;48.00;31.50;;;;;;;7.84;77.66;100314.27;104188;1313;22640;-59
2024/02/27 00:18:42;;;;;;;49.90;30.60;;;;;;;7.88;77.59;100315.43;105519;1306;22581;-59
2024/02/27 00:21:09;;;;;;;45.50;29.00;;;;;;;7.91;77.53;100314.21;103630;1305;22833;-60
2024/02/27 00:23:34;;;;;;;48.20;30.80;;;;;;;7.91;78.13;100309.73;103699;1306;23324;-60
2024/02/27 00:26:00;;;;;;;50.10;30.80;;;;;;;7.90;78.19;100312.67;103717;1312;24348;-59
2024/02/27 00:28:26;;;;;;;45.90;31.00;;;;;;;7.90;78.11;100317.81;103691;1313;22660;-58
2024/02/27 00:30:51;;;;;;;49.70;29.70;;;;;;;7.90;78.11;100311.81;103742;1295;24302;-58
2024/02/27 00:33:17;;;;;;;51.40;32.20;;;;;;;7.89;78.54;100309.08;103721;1306;25424;-60
2024/02/27 00:35:42;;;;;;;50.60;31.70;;;;;;;7.86;78.59;100306.02;103747;1309;24362;-57
2024/02/27 00:38:08;;;;;;;49.50;31.60;;;;;;;7.86;79.02;100308.24;103725;1313;22625;-60
2024/02/27 00:40:34;;;;;;;51.20;32.30;;;;;;;7.86;79.46;100301.89;103701;1313;25507;-58
2024/02/27 00:43:00;;;;;;;47.40;31.20;;;;;;;7.86;79.24;100304.82;103749;1295;22776;-57
2024/02/27 00:45:26;;;;;;;52.50;32.50;;;;;;;7.85;79.13;100304.81;107261;1313;22229;-58
2024/02/27 00:47:52;;;;;;;45.70;31.90;;;;;;;7.85;78.96;100306.54;107382;1313;22258;-60
2024/02/27 00:50:18;;;;;;;50.20;32.00;;;;;;;7.85;78.99;100312.03;107034;1313;23978;-60
2024/02/27 00:52:44;;;;;;;57.20;32.70;;;;;;;7.85;78.96;100316.48;103616;1308;25355;-59
2024/02/27 00:55:10;;;;;;;48.40;32.80;;;;;;;7.87;79.05;100318.88;103684;1311;22676;-60
2024/02/27 00:57:36;;;;;;;52.20;32.30;;;;;;;7.87;79.26;100316.81;103789;1312;22617;-59
2024/02/27 01:00:07;;;;;;;46.90;32.00;;;;;;;7.86;79.38;100315.11;103836;1313;22579;-60
2024/02/27 01:02:33;;;;;;;43.30;29.20;;;;;;;7.84;79.76;100317.53;107307;1292;22334;-59
2024/02/27 01:05:09;;;;;;;;;;;;;;;;;;;;;
2024/02/27 01:07:35;;;;;;;50.10;31.90;;;;;;;7.79;79.47;100318.81;107320;1308;22408;-61
2024/02/27 01:10:01;;;;;;;44.10;30.80;;;;;;;7.78;79.47;100326.54;107192;1304;22478;-60
2024/02/27 01:12:27;;;;;;;48.20;31.80;;;;;;;7.78;79.37;100332.03;107305;1295;22145;-59
2024/02/27 01:14:53;;;;;;;44.20;29.80;;;;;;;7.78;79.36;100337.01;107306;1298;22436;-61
2024/02/27 01:17:19;;;;;;;52.40;31.40;;;;;;;7.79;79.72;100343.86;107218;1306;22380;-59
2024/02/27 01:19:44;;;;;;;48.40;31.70;;;;;;;7.81;79.55;100349.14;107325;1311;22461;-60
2024/02/27 01:22:10;;;;;;;45.60;31.00;;;;;;;7.82;79.45;100348.09;107298;1306;23636;-61
2024/02/27 01:24:37;;;;;;;46.80;31.30;;;;;;;7.80;79.60;100352.41;104800;1313;22613;-60
2024/02/27 01:27:04;;;;;;;47.00;31.30;;;;;;;7.80;79.66;100356.18;107113;1314;22418;-61
2024/02/27 01:29:30;;;;;;;47.40;31.40;;;;;;;7.81;79.69;100355.14;103199;1306;5003451;-61
2024/02/27 01:31:55;;;;;;;49.00;32.20;;;;;;;7.79;79.74;100356.91;107235;1293;22268;-60
2024/02/27 01:34:21;;;;;;;43.80;30.20;;;;;;;7.77;79.78;100359.15;107349;1313;22933;-60
2024/02/27 01:36:47;;;;;;;47.50;31.70;;;;;;;7.75;80.04;100359.34;106772;1310;22554;-60
2024/02/27 01:39:13;;;;;;;48.60;32.80;;;;;;;7.74;79.90;100357.47;105261;1312;22284;-60
2024/02/27 01:41:48;;;;;;;44.80;29.90;;;;;;;7.72;79.84;100362.29;107263;1307;22259;-60
2024/02/27 01:44:13;;;;;;;47.60;33.40;;;;;;;7.71;80.45;100361.43;107269;1294;22315;-60
2024/02/27 01:46:40;;;;;;;55.10;33.60;;;;;;;7.70;80.94;100360.59;107319;1308;22435;-60
2024/02/27 01:49:05;;;;;;;49.40;32.00;;;;;;;7.67;80.97;100359.40;107357;1306;22272;-60
2024/02/27 01:51:31;;;;;;;54.80;33.30;;;;;;;7.66;81.13;100363.37;105281;1292;24339;-59
2024/02/27 01:54:00;;;;;;;52.20;33.50;;;;;;;7.63;81.01;100369.55;103575;1298;24697;-60
2024/02/27 01:56:26;;;;;;;52.80;33.60;;;;;;;7.62;80.75;100366.48;103721;1291;25961;-59
2024/02/27 01:58:54;;;;;;;47.60;31.80;;;;;;;7.61;81.21;100368.38;103752;1313;23135;-59
2024/02/27 02:01:20;;;;;;;49.90;30.90;;;;;;;7.59;81.16;100372.51;103732;1310;25378;-60
2024/02/27 02:03:47;;;;;;;49.90;32.80;;;;;;;7.58;81.22;100369.94;107255;1295;22220;-61
2024/02/27 02:06:13;;;;;;;47.50;32.40;;;;;;;7.55;81.29;100369.11;107212;1313;22319;-59
2024/02/27 02:08:38;;;;;;;50.40;32.20;;;;;;;7.53;81.33;100372.38;107368;1311;22435;-61
2024/02/27 02:11:07;;;;;;;52.20;32.60;;;;;;;7.51;81.14;100376.86;107376;1305;23692;-60
2024/02/27 02:13:33;;;;;;;54.00;33.30;;;;;;;7.50;81.35;100375.66;107091;1294;22242;-60
2024/02/27 02:15:59;;;;;;;49.10;32.40;;;;;;;7.50;81.27;100373.77;107127;1308;22352;-60
2024/02/27 02:18:25;;;;;;;45.10;30.80;;;;;;;7.50;81.21;100372.23;107282;1313;23602;-60
2024/02/27 02:20:50;;;;;;;48.50;31.80;;;;;;;7.47;81.32;100367.97;107269;1308;22530;-61
2024/02/27 02:23:16;;;;;;;46.60;30.00;;;;;;;7.44;81.43;100361.81;107082;1297;22359;-60
2024/02/27 02:25:42;;;;;;;50.60;33.70;;;;;;;7.43;81.60;100358.22;107328;1306;22443;-61
2024/02/27 02:28:08;;;;;;;49.40;31.40;;;;;;;7.43;81.86;100354.10;107369;1313;22433;-60
2024/02/27 02:30:36;;;;;;;49.70;31.90;;;;;;;7.43;82.47;100356.67;107307;1311;23281;-60
2024/02/27 02:33:01;;;;;;;45.80;30.30;;;;;;;7.39;82.18;100355.67;107333;1291;23250;-60
2024/02/27 02:35:27;;;;;;;48.00;30.20;;;;;;;7.37;82.30;100357.40;106058;1313;24205;-60
2024/02/27 02:37:52;;;;;;;48.80;31.30;;;;;;;7.33;82.30;100362.40;103617;1313;22667;-59
2024/02/27 02:40:20;;;;;;;43.70;29.90;;;;;;;7.28;82.47;100362.27;103651;1298;26130;-57
2024/02/27 02:42:45;;;;;;;50.40;32.00;;;;;;;7.24;82.35;100367.80;103586;1292;22644;-58
2024/02/27 02:45:12;;;;;;;48.60;31.50;;;;;;;7.20;82.39;100361.31;103690;1313;22532;-60
2024/02/27 02:47:38;;;;;;;;;;;;;;;7.17;82.67;100356.71;103741;1305;26024;-59
2024/02/27 02:50:06;;;;;;;48.00;31.20;;;;;;;7.13;82.62;100361.53;103616;1309;27634;-59
2024/02/27 02:52:31;;;;;;;44.30;29.50;;;;;;;7.08;82.53;100369.27;107229;1313;22278;-60
2024/02/27 02:55:00;;;;;;;45.00;30.40;;;;;;;7.06;82.82;100372.20;107154;1298;22406;-59
2024/02/27 02:57:25;;;;;;;49.80;31.50;;;;;;;7.06;82.89;100374.25;107397;1313;22231;-60
2024/02/27 02:59:52;;;;;;;52.60;31.40;;;;;;;7.06;83.00;100377.34;107180;1313;22265;-60
2024/02/27 03:02:17;;;;;;;45.80;29.20;;;;;;;7.05;82.99;100385.91;107347;1313;22281;-60
2024/02/27 03:04:43;;;;;;;46.10;29.30;;;;;;;7.07;83.10;100398.77;107319;1292;22243;-61
2024/02/27 03:07:09;;;;;;;50.80;31.00;;;;;;;7.08;83.12;100404.58;107272;1314;23111;-61
2024/02/27 03:09:34;;;;;;;48.30;30.60;;;;;;;7.09;83.11;100404.06;107227;1307;22447;-60
2024/02/27 03:12:01;;;;;;;48.10;29.70;;;;;;;7.11;83.04;100408.17;107205;1308;22237;-61
2024/02/27 03:14:26;;;;;;;47.80;30.60;;;;;;;7.13;82.89;100410.90;107272;1295;22347;-61
2024/02/27 03:16:53;;;;;;;41.70;29.40;;;;;;;7.14;83.07;100413.80;107318;1311;22455;-60
2024/02/27 03:19:19;;;;;;;43.20;29.50;;;;;;;7.13;82.97;100415.70;107286;1308;22431;-59
2024/02/27 03:21:45;;;;;;;45.30;29.90;;;;;;;7.12;83.02;100423.77;107265;1306;22411;-59
2024/02/27 03:24:10;;;;;;;48.50;30.10;;;;;;;7.11;83.16;100430.79;107232;1292;22274;-60
2024/02/27 03:26:36;;;;;;;49.00;29.60;;;;;;;7.11;83.28;100436.27;107082;1313;22250;-61
2024/02/27 03:29:02;;;;;;;47.60;31.50;;;;;;;7.13;83.20;100432.67;107351;1307;22346;-60
2024/02/27 03:31:28;;;;;;;49.20;31.40;;;;;;;7.14;83.11;100425.46;107205;1314;22334;-61
2024/02/27 03:33:54;;;;;;;43.30;30.30;;;;;;;7.14;83.17;100424.78;107144;1301;22427;-61
2024/02/27 03:36:19;;;;;;;47.40;29.40;;;;;;;7.15;83.26;100427.69;107166;1297;22283;-60
2024/02/27 03:38:45;;;;;;;45.60;30.10;;;;;;;7.14;83.33;100427.00;107335;1313;22342;-61
2024/02/27 03:41:13;;;;;;;50.20;30.90;;;;;;;7.14;83.45;100433.69;107339;1313;22385;-61
2024/02/27 03:43:42;;;;;;;44.30;28.90;;;;;;;7.14;83.37;100431.12;107341;1313;22267;-61
2024/02/27 03:46:11;;;;;;;44.10;29.60;;;;;;;7.16;83.42;100431.45;107286;1295;22250;-61
2024/02/27 03:48:36;;;;;;;45.90;31.00;;;;;;;7.17;83.25;100447.56;107160;1311;23164;-60
2024/02/27 03:51:02;;;;;;;39.40;27.60;;;;;;;7.18;83.51;100454.94;107266;1311;23371;-61
2024/02/27 03:53:29;;;;;;;42.80;27.30;;;;;;;7.12;83.40;100452.90;107155;1313;22276;-57
2024/02/27 03:55:55;;;;;;;43.40;28.10;;;;;;;7.09;83.61;100451.89;107153;1295;22242;-56
2024/02/27 03:58:20;;;;;;;40.90;29.30;;;;;;;7.06;83.60;100452.06;107190;1307;22248;-58
2024/02/27 04:00:46;;;;;;;43.20;28.20;;;;;;;7.05;83.45;100449.33;107312;1305;22387;-58
2024/02/27 04:03:11;;;;;;;43.40;28.50;;;;;;;7.00;83.60;100448.66;107342;1306;22908;-58
2024/02/27 04:05:37;;;;;;;45.00;28.90;;;;;;;6.98;83.65;100453.81;107296;1295;22278;-57
2024/02/27 04:08:08;;;;;;;42.20;27.80;;;;;;;6.96;83.73;100452.80;107335;1313;22268;-58
2024/02/27 04:10:33;;;;;;;44.60;28.00;;;;;;;6.95;83.76;100449.20;107222;1313;22336;-58
2024/02/27 04:12:59;;;;;;;37.70;25.40;;;;;;;6.91;83.67;100446.46;107370;1313;22456;-59
2024/02/27 04:15:24;;;;;;;42.00;27.40;;;;;;;6.85;83.60;100450.94;107299;1289;23018;-56
2024/02/27 04:17:50;;;;;;;38.40;26.60;;;;;;;6.82;83.34;100452.84;107338;1311;22226;-58
2024/02/27 04:20:15;;;;;;;35.70;24.40;;;;;;;6.79;83.35;100461.94;104106;1311;22556;-59
2024/02/27 04:22:41;;;;;;;35.60;26.40;;;;;;;6.72;83.14;100463.52;103475;1313;24249;-58
2024/02/27 04:25:07;;;;;;;38.70;25.50;;;;;;;6.66;83.21;100467.99;103708;1307;25290;-57
2024/02/27 04:27:32;;;;;;;45.40;27.30;;;;;;;6.63;83.46;100472.10;103676;1307;22520;-58
2024/02/27 04:29:58;;;;;;;42.40;27.80;;;;;;;6.61;83.43;100474.16;103671;1307;24019;-58
2024/02/27 04:32:24;;;;;;;44.80;28.00;;;;;;;6.59;83.61;100479.48;103719;1314;23426;-58
2024/02/27 04:34:49;;;;;;;41.80;26.80;;;;;;;6.55;83.75;100488.73;103748;1314;22569;-58
2024/02/27 04:37:15;;;;;;;45.70;26.30;;;;;;;6.53;83.75;100483.25;103914;1295;23946;-58
2024/02/27 04:39:44;;;;;;;40.50;26.80;;;;;;;6.51;83.89;100485.83;103787;1307;22539;-59
2024/02/27 04:42:09;;;;;;;43.20;26.20;;;;;;;6.49;83.84;100481.73;104371;1313;22520;-57
2024/02/27 04:44:35;;;;;;;49.30;28.40;;;;;;;6.48;83.98;100485.83;103743;1307;25326;-58
2024/02/27 04:47:00;;;;;;;43.60;28.70;;;;;;;6.48;84.05;100489.77;103817;1295;26534;-57
2024/02/27 04:49:26;;;;;;;49.20;29.70;;;;;;;6.47;83.94;100488.57;103671;1314;22528;-57
2024/02/27 04:51:51;;;;;;;48.40;31.80;;;;;;;6.48;83.84;100481.73;103635;1314;24220;-58
2024/02/27 04:54:17;;;;;;;45.20;29.20;;;;;;;6.48;83.67;100484.30;103914;1313;22647;-57
2024/02/27 04:56:42;;;;;;;51.20;33.30;;;;;;;6.49;83.61;100482.40;103872;1313;25452;-60
2024/02/27 04:59:09;;;;;;;53.80;34.30;;;;;;;6.50;83.63;100475.73;103734;1306;24273;-59
2024/02/27 05:01:35;;;;;;;57.30;35.60;;;;;;;6.52;84.06;100470.23;103887;1313;22632;-58
2024/02/27 05:04:00;;;;;;;50.20;33.40;;;;;;;6.52;84.03;100469.05;103746;1300;22565;-59
2024/02/27 05:06:26;;;;;;;57.10;35.40;;;;;;;6.54;83.73;100469.73;103828;1295;22694;-60
2024/02/27 05:08:51;;;;;;;50.60;34.70;;;;;;;6.57;83.73;100475.37;103939;1308;22582;-60
2024/02/27 05:11:18;;;;;;;56.30;34.50;;;;;;;6.57;83.89;100475.20;103877;1299;23804;-60
2024/02/27 05:13:43;;;;;;;75.30;47.30;;;;;;;6.59;83.96;100473.66;103753;1307;336599;-60
2024/02/27 05:16:10;;;;;;;113.60;64.30;;;;;;;6.61;84.14;100468.52;103787;1293;22582;-60
2024/02/27 05:18:36;;;;;;;68.20;42.80;;;;;;;6.63;84.07;100464.75;105331;1295;22658;-60
2024/02/27 05:21:14;;;;;;;58.60;38.50;;;;;;;6.67;84.33;100461.48;105512;1308;23056;-59
2024/02/27 05:23:40;;;;;;;62.10;39.70;;;;;;;6.68;84.38;100463.71;105410;1308;22562;-59
2024/02/27 05:26:05;;;;;;;66.10;41.50;;;;;;;6.68;84.84;100472.27;105432;1307;25325;-59
2024/02/27 05:28:31;;;;;;;68.30;40.80;;;;;;;6.69;84.74;100473.29;105570;1295;22566;-59
2024/02/27 05:30:57;;;;;;;55.20;36.10;;;;;;;6.72;84.58;100469.34;103746;1303;24180;-60
2024/02/27 05:33:22;;;;;;;59.90;38.90;;;;;;;6.75;84.75;100470.36;103070;1291;22589;-59
2024/02/27 05:35:48;;;;;;;58.30;37.40;;;;;;;6.77;84.88;100477.36;103230;1313;22692;-59
2024/02/27 05:38:13;;;;;;;59.20;39.70;;;;;;;6.80;84.95;100482.99;103096;1297;22602;-60
2024/02/27 05:40:39;;;;;;;62.80;39.50;;;;;;;6.82;85.02;100483.16;103194;1300;24260;-59
2024/02/27 05:43:04;;;;;;;61.80;40.30;;;;;;;6.85;85.11;100486.59;103145;1307;23138;-60
2024/02/27 05:45:31;;;;;;;58.20;35.90;;;;;;;6.87;85.27;100497.71;103184;1310;24273;-60
2024/02/27 05:47:57;;;;;;;58.00;38.10;;;;;;;6.88;85.51;100503.88;103219;1291;22897;-60
2024/02/27 05:50:23;;;;;;;62.40;37.40;;;;;;;6.88;85.32;100502.86;103207;1295;23080;-58
2024/02/27 05:52:48;;;;;;;61.70;40.10;;;;;;;6.89;85.49;100500.80;103361;1312;22572;-59
2024/02/27 05:55:14;;;;;;;70.70;40.20;;;;;;;6.91;85.64;100508.33;103340;1313;22555;-59
2024/02/27 05:57:39;;;;;;;58.50;38.90;;;;;;;6.93;86.33;100515.00;103311;1294;25378;-61
2024/02/27 06:00:08;;;;;;;57.70;39.70;;;;;;;6.93;85.76;100520.48;103164;1298;22621;-61
2024/02/27 06:02:33;;;;;;;63.00;40.10;;;;;;;6.94;85.63;100522.89;107177;1307;22414;-61
2024/02/27 06:04:59;;;;;;;59.80;39.00;;;;;;;6.96;85.86;100524.08;105707;1307;22600;-60
2024/02/27 06:07:24;;;;;;;64.60;40.20;;;;;;;6.97;86.09;100522.19;107125;1289;23050;-61
2024/02/27 06:09:50;;;;;;;73.90;43.70;;;;;;;7.01;86.36;100523.55;107253;1299;22415;-61
2024/02/27 06:12:16;;;;;;;64.00;40.60;;;;;;;7.03;86.28;100527.48;107214;1298;22705;-60
2024/02/27 06:14:41;;;;;;;61.90;41.40;;;;;;;7.05;86.33;100527.14;107252;1313;22251;-60
2024/02/27 06:17:07;;;;;;;67.40;43.40;;;;;;;7.08;86.46;100528.85;107136;1305;22463;-60
2024/02/27 06:19:33;;;;;;;73.10;44.50;;;;;;;7.11;86.26;100532.95;105475;1295;24258;-59
2024/02/27 06:22:10;;;;;;;64.10;41.20;;;;;;;7.18;86.25;100536.52;103153;1307;24399;-58
2024/02/27 06:24:37;;;;;;;65.10;39.50;;;;;;;7.22;86.27;100537.02;103190;1313;25396;-59
2024/02/27 06:27:03;;;;;;;65.30;40.70;;;;;;;7.27;86.72;100540.61;103124;1306;22746;-60
2024/02/27 06:29:28;;;;;;;71.90;41.60;;;;;;;7.29;86.58;100547.77;103268;1295;24091;-61
2024/02/27 06:31:54;;;;;;;65.00;40.60;;;;;;;7.32;86.54;100549.30;103311;1313;24400;-60
2024/02/27 06:34:20;;;;;;;64.70;39.90;;;;;;;7.35;86.69;100547.76;103288;1313;22569;-61
2024/02/27 06:36:45;;;;;;;65.70;41.80;;;;;;;7.37;86.57;100546.54;103222;1308;22647;-60
2024/02/27 06:39:11;;;;;;;74.40;43.50;;;;;;;7.41;86.64;100548.23;103187;1297;22547;-60
2024/02/27 06:41:37;;;;;;;77.20;42.40;;;;;;;7.46;86.67;100545.98;103188;1298;22592;-59
2024/02/27 06:44:04;;;;;;;73.00;43.80;;;;;;;7.48;86.73;100546.50;103188;1313;22612;-60
2024/02/27 06:46:29;;;;;;;75.70;42.10;;;;;;;7.52;86.93;100544.42;103175;1313;23103;-60
2024/02/27 06:48:55;;;;;;;68.60;41.80;;;;;;;7.53;86.86;100553.00;103189;1292;22569;-60
2024/02/27 06:51:21;;;;;;;67.70;40.50;;;;;;;7.53;86.83;100556.42;103254;1305;22707;-57
2024/02/27 06:53:48;;;;;;;67.40;40.10;;;;;;;7.54;86.87;100552.65;103059;1298;25130;-59
2024/02/27 06:56:14;;;;;;;64.80;40.90;;;;;;;7.53;87.43;100557.11;103081;1311;22820;-60
2024/02/27 06:58:40;;;;;;;69.90;39.20;;;;;;;7.52;87.29;100561.74;103088;1294;22610;-56
2024/02/27 07:01:05;;;;;;;59.90;36.50;;;;;;;7.53;87.24;100562.42;102865;1298;22585;-58
2024/02/27 07:03:31;;;;;;;57.90;37.20;;;;;;;7.52;87.16;100562.44;103090;1291;22676;-58
2024/02/27 07:06:00;;;;;;;63.40;38.10;;;;;;;7.52;87.24;100563.29;102976;1304;22606;-58
2024/02/27 07:08:26;;;;;;;66.10;40.00;;;;;;;7.52;87.14;100565.35;104942;1313;22678;-58
2024/02/27 07:10:52;;;;;;;63.50;37.60;;;;;;;7.53;87.18;100566.89;103147;1308;22583;-58
2024/02/27 07:13:18;;;;;;;66.30;39.10;;;;;;;7.55;87.28;100566.36;103133;1313;23035;-58
2024/02/27 07:15:44;;;;;;;61.70;37.30;;;;;;;7.57;87.31;100569.28;103159;1298;22794;-58
2024/02/27 07:18:11;;;;;;;65.40;38.30;;;;;;;7.59;87.20;100573.89;103236;1308;24052;-58
2024/02/27 07:20:37;;;;;;;58.50;35.00;;;;;;;7.60;87.24;100583.32;107142;1291;22230;-59
2024/02/27 07:23:02;;;;;;;59.60;36.40;;;;;;;7.60;87.39;100582.30;107124;1303;22332;-59
2024/02/27 07:25:28;;;;;;;59.80;33.60;;;;;;;7.62;87.64;100584.00;107182;1313;22260;-59
2024/02/27 07:27:53;;;;;;;60.50;36.50;;;;;;;7.58;87.65;100585.91;107190;1307;22355;-59
2024/02/27 07:30:19;;;;;;;65.80;35.50;;;;;;;7.57;87.63;100590.02;105114;1292;22600;-57
2024/02/27 07:32:45;;;;;;;56.10;34.30;;;;;;;7.57;87.78;100595.34;103231;1305;23963;-58
2024/02/27 07:35:10;;;;;;;63.70;38.50;;;;;;;7.59;87.87;100597.23;103069;1307;22622;-58
2024/02/27 07:37:37;;;;;;;62.10;38.50;;;;;;;7.60;87.65;100600.65;102947;1308;23713;-58
2024/02/27 07:40:04;;;;;;;68.60;38.50;;;;;;;7.62;87.81;100600.48;107080;1291;22274;-59
2024/02/27 07:42:29;;;;;;;73.20;41.60;;;;;;;7.64;87.95;100598.58;99483;1315;5003788;-59
2024/02/27 07:44:55;;;;;;;68.80;41.00;;;;;;;7.69;87.95;100600.61;107212;1313;22351;-58
2024/02/27 07:47:20;;;;;;;75.60;44.70;;;;;;;7.70;87.93;100599.58;107202;1305;22335;-59
2024/02/27 07:49:47;;;;;;;72.40;40.60;;;;;;;7.74;87.88;100602.31;107182;1291;23007;-59
2024/02/27 07:52:13;;;;;;;75.20;41.90;;;;;;;7.78;88.02;100604.52;107195;1307;22442;-59
2024/02/27 07:54:42;;;;;;;74.50;43.80;;;;;;;7.83;88.08;100600.87;107113;1303;23238;-59
2024/02/27 07:57:07;;;;;;;65.40;38.50;;;;;;;7.84;88.31;100603.60;106359;1313;22600;-59
2024/02/27 07:59:33;;;;;;;71.90;42.70;;;;;;;7.83;88.06;100609.27;103122;1292;25465;-59
2024/02/27 08:01:58;;;;;;;64.80;38.20;;;;;;;7.84;88.10;100609.44;102907;1314;22814;-59
2024/02/27 08:04:24;;;;;;;61.10;37.40;;;;;;;7.84;88.39;100612.17;103165;1298;24218;-59
2024/02/27 08:06:49;;;;;;;67.50;38.10;;;;;;;7.86;88.43;100615.09;103172;1301;23083;-58
2024/02/27 08:09:18;;;;;;;66.50;40.30;;;;;;;7.86;88.59;100617.66;103126;1307;23958;-60
2024/02/27 08:11:44;;;;;;;69.70;40.60;;;;;;;7.87;88.62;100619.20;103048;1294;25441;-58
2024/02/27 08:14:10;;;;;;;76.20;43.90;;;;;;;7.91;88.58;100618.15;103079;1313;22574;-57
2024/02/27 08:16:35;;;;;;;71.80;43.70;;;;;;;7.95;88.56;100617.45;103021;1306;25267;-59
2024/02/27 08:19:04;;;;;;;65.70;41.40;;;;;;;7.98;88.71;100618.98;102931;1309;22922;-58
2024/02/27 08:21:33;;;;;;;70.10;39.90;;;;;;;8.02;88.79;100622.23;107150;1292;22399;-57
2024/02/27 08:24:00;;;;;;;67.50;39.80;;;;;;;8.05;88.85;100628.05;107197;1305;22524;-59
2024/02/27 08:26:26;;;;;;;69.40;40.50;;;;;;;8.07;88.81;100630.78;104596;1308;24381;-59
2024/02/27 08:28:52;;;;;;;73.00;40.60;;;;;;;8.13;88.68;100634.02;103219;1305;22593;-58
2024/02/27 08:31:19;;;;;;;80.80;43.40;;;;;;;8.15;88.86;100637.42;103023;1294;22585;-58
2024/02/27 08:33:44;;;;;;;83.70;46.50;;;;;;;8.20;88.99;100643.41;107134;1313;22313;-59
2024/02/27 08:36:10;;;;;;;75.50;43.90;;;;;;;8.26;89.01;100645.95;107181;1301;22264;-58
2024/02/27 08:38:36;;;;;;;74.80;43.20;;;;;;;8.28;89.08;100643.71;107134;1306;22393;-59
2024/02/27 08:41:02;;;;;;;71.00;42.20;;;;;;;8.34;89.20;100639.21;103865;1295;23977;-57
2024/02/27 08:43:27;;;;;;;71.20;41.40;;;;;;;8.38;89.18;100635.06;103123;1291;25454;-59
2024/02/27 08:45:53;;;;;;;78.60;44.50;;;;;;;8.48;89.27;100634.81;103824;1305;25329;-58
2024/02/27 08:48:18;;;;;;;76.20;42.60;;;;;;;8.59;89.25;100636.29;103330;1313;22691;-58
2024/02/27 08:50:46;;;;;;;72.80;42.60;;;;;;;8.67;89.49;100636.23;103321;1298;27690;-57
2024/02/27 08:53:12;;;;;;;74.10;42.30;;;;;;;8.73;89.35;100642.20;103894;1308;22657;-58
2024/02/27 08:55:38;;;;;;;74.70;40.40;;;;;;;8.77;89.50;100648.87;103915;1300;23973;-57
2024/02/27 08:58:04;;;;;;;72.40;42.80;;;;;;;8.74;89.46;100650.95;104262;1294;23180;-56
2024/02/27 09:00:30;;;;;;;72.10;43.50;;;;;;;8.76;89.47;100655.74;104415;1292;25336;-56
2024/02/27 09:02:55;;;;;;;83.50;44.90;;;;;;;8.83;89.51;100657.56;104125;1305;27542;-57
2024/02/27 09:05:21;;;;;;;77.90;43.00;;;;;;;8.92;89.50;100660.58;104364;1310;23874;-56
2024/02/27 09:07:47;;;;;;;87.90;48.80;;;;;;;8.94;89.27;100663.31;107275;1305;22371;-57
2024/02/27 09:10:12;;;;;;;71.10;39.80;;;;;;;8.98;89.36;100664.99;107290;1308;22251;-58
2024/02/27 09:13:00;;;;;;;70.40;41.20;;;;;;;8.98;89.19;100665.67;107256;1291;22505;-57
2024/02/27 09:15:25;;;;;;;81.20;42.60;;;;;;;8.98;89.26;100666.37;107226;1306;22310;-55
2024/02/27 09:17:50;;;;;;;77.30;43.10;;;;;;;9.01;89.34;100665.14;107220;1310;22957;-56
2024/02/27 09:20:16;;;;;;;84.30;45.20;;;;;;;9.06;89.50;100664.23;107239;1310;22273;-58
2024/02/27 09:22:41;;;;;;;90.80;51.00;;;;;;;9.13;89.51;100664.34;107287;1300;22239;-58
2024/02/27 09:25:07;;;;;;;153.80;69.60;;;;;;;9.24;89.50;100662.86;107318;1305;22309;-58
2024/02/27 09:27:35;;;;;;;155.30;70.70;;;;;;;9.36;89.55;100661.17;107348;1301;22268;-59
2024/02/27 09:30:01;;;;;;;77.40;41.30;;;;;;;9.45;89.59;100661.58;107413;1313;22849;-58
2024/02/27 09:32:26;;;;;;;62.20;37.70;;;;;;;9.45;89.46;100668.30;105746;1294;22545;-57
2024/02/27 09:34:52;;;;;;;61.10;36.50;;;;;;;9.45;89.41;100673.64;105118;1307;22515;-58
2024/02/27 09:37:22;;;;;;;68.40;37.50;;;;;;;9.48;89.51;100675.67;105103;1307;22611;-57
2024/02/27 09:39:48;;;;;;;66.90;38.10;;;;;;;9.54;89.47;100669.25;105111;1300;22565;-58
2024/02/27 09:42:13;;;;;;;66.10;38.10;;;;;;;9.58;89.58;100674.70;105034;1291;22558;-58
2024/02/27 09:44:44;;;;;;;68.10;38.20;;;;;;;9.58;89.50;100674.20;105258;1305;22595;-60
2024/02/27 09:47:14;;;;;;;69.90;39.30;;;;;;;9.57;89.61;100669.55;105131;1308;22817;-58
2024/02/27 09:49:42;;;;;;;59.40;37.10;;;;;;;9.58;89.70;100672.11;105108;1298;22809;-58
2024/02/27 09:52:27;;;;;;;;;;;;;;;;;;;;;
2024/02/27 09:54:53;;;;;;;62.20;39.50;;;;;;;9.59;89.56;100670.56;107211;1307;22426;-58
2024/02/27 09:57:19;;;;;;;66.50;37.70;;;;;;;9.64;89.65;100672.91;107286;1313;22275;-58
2024/02/27 09:59:46;;;;;;;70.60;45.50;;;;;;;9.69;89.67;100675.10;104778;1307;22729;-58
2024/02/27 10:02:22;;;;;;;73.80;43.40;;;;;;;9.71;89.62;100680.92;106820;1292;22554;-58
2024/02/27 10:04:48;;;;;;;61.70;37.50;;;;;;;9.76;89.56;100685.52;104020;1305;22548;-57
2024/02/27 10:07:18;;;;;;;65.60;38.90;;;;;;;9.82;89.58;100689.59;104226;1306;22723;-61
2024/02/27 10:09:45;;;;;;;64.00;37.50;;;;;;;9.85;89.44;100693.00;104705;1298;22679;-58
2024/02/27 10:12:13;;;;;;;55.30;35.40;;;;;;;9.86;89.50;100695.39;104204;1291;24271;-58
2024/02/27 10:14:39;;;;;;;62.20;38.80;;;;;;;9.86;89.47;100697.80;105813;1307;24108;-58
2024/02/27 10:17:06;;;;;;;65.10;38.00;;;;;;;9.90;89.60;100701.85;104418;1313;22674;-58
2024/02/27 10:19:33;;;;;;;64.10;37.50;;;;;;;9.92;89.41;100693.39;106890;1307;22564;-58
2024/02/27 10:22:01;;;;;;;62.40;38.10;;;;;;;9.87;89.36;100691.92;103934;1302;22653;-57
2024/02/27 10:24:29;;;;;;;62.50;36.80;;;;;;;9.82;89.33;100693.71;104727;1292;25854;-59
2024/02/27 10:26:57;;;;;;;64.20;38.70;;;;;;;9.84;89.44;100696.10;103334;1301;22577;-59
2024/02/27 10:29:24;;;;;;;74.10;40.70;;;;;;;9.85;89.43;100695.23;103549;1311;22611;-55
2024/02/27 10:31:50;;;;;;;61.70;38.70;;;;;;;9.81;89.21;100698.89;102958;1307;506531;-58
2024/02/27 10:34:17;;;;;;;68.50;36.80;;;;;;;9.77;89.29;100698.77;103151;1297;22929;-59
2024/02/27 10:36:43;;;;;;;;;;;;;;;9.78;89.36;100697.20;103080;1309;22631;-59
2024/02/27 10:39:12;;;;;;;65.70;38.70;;;;;;;9.80;89.45;100703.04;103137;1307;25523;-58
2024/02/27 10:41:40;;;;;;;70.90;42.20;;;;;;;9.82;89.38;100706.11;103057;1313;22571;-59
2024/02/27 10:44:09;;;;;;;62.30;36.70;;;;;;;9.81;89.28;100706.98;103181;1297;22656;-59
2024/02/27 10:46:36;;;;;;;55.50;34.20;;;;;;;9.78;89.19;100702.38;103155;1313;22558;-60
2024/02/27 10:49:03;;;;;;;53.30;32.70;;;;;;;9.77;89.22;100707.02;103056;1305;22613;-57
2024/02/27 10:51:30;;;;;;;72.70;43.20;;;;;;;9.72;89.11;100708.29;107216;1308;22332;-59
2024/02/27 10:53:58;;;;;;;;;;;;;;;9.71;89.12;100713.13;107033;1294;22444;-60
2024/02/27 10:56:33;;;;;;;60.10;35.20;;;;;;;9.70;89.17;100715.70;107137;1307;23107;-60
2024/02/27 10:59:00;;;;;;;58.70;34.00;;;;;;;9.69;89.23;100718.30;107089;1307;22932;-59
2024/02/27 11:01:27;;;;;;;57.00;32.80;;;;;;;9.69;89.14;100715.73;107099;1313;23598;-59
2024/02/27 11:03:53;;;;;;;55.40;33.70;;;;;;;9.69;89.14;100713.83;107199;1306;22251;-58
2024/02/27 11:06:26;;;;;;;52.30;31.70;;;;;;;9.72;89.19;100715.34;107183;1306;22275;-59
2024/02/27 11:09:03;;;;;;;43.30;29.90;;;;;;;9.80;89.42;100711.99;105775;1304;24322;-56